Time;durP1;ratioP1;P1;durP2;ratioP2;P2;SDS_P1;SDS_P2;PMS_P1;PMS_P2;Temp;Humidity;BMP_temperature;BMP_pressure;BME280_temperature;BME280_humidity;BME280_pressure;Samples;Min_cycle;Max_cycle;Signal;HPM_P1;HPM_P2
2022/08/28 00:01:55;;;;;;;;;4.00;2.67;;;;;26.67;36.92;66196.38;4994342;28;46261;-72
2022/08/28 00:04:21;;;;;;;;;5.00;3.67;;;;;26.67;37.20;66111.78;5077674;27;45413;-72
2022/08/28 00:06:47;;;;;;;;;3.33;3.33;;;;;26.62;37.69;66082.28;5098001;27;45437;-72
2022/08/28 00:09:12;;;;;;;;;4.33;4.33;;;;;26.66;37.50;66032.03;5071387;27;45600;-72
2022/08/28 00:11:38;;;;;;;;;3.00;3.00;;;;;26.64;37.43;65883.94;5013828;28;45528;-72
2022/08/28 00:14:06;;;;;;;;;2.00;2.00;;;;;26.62;37.48;65875.69;4996629;28;45524;-72
2022/08/28 00:16:32;;;;;;;;;3.00;3.00;;;;;26.53;37.52;65820.00;5014361;28;45439;-72
2022/08/28 00:18:57;;;;;;;;;3.00;3.00;;;;;26.46;37.83;65749.75;5029371;28;45420;-72
2022/08/28 00:21:23;;;;;;;;;3.00;3.00;;;;;26.53;37.76;65673.66;5001261;27;46096;-72
2022/08/28 00:23:49;;;;;;;;;7.00;3.67;;;;;26.52;38.24;65645.97;5076675;27;45417;-72
2022/08/28 00:27:51;;;;;;;;;5.00;3.00;;;;;26.51;38.09;65436.19;5097569;27;45806;-72
2022/08/28 00:29:00;;;;;;;;;4.67;4.33;;;;;26.44;38.44;65412.06;5098231;27;45545;-71
2022/08/28 00:31:26;;;;;;;;;2.00;2.00;;;;;26.48;37.90;65310.31;5097406;27;45527;-72
2022/08/28 00:33:52;;;;;;;;;5.00;4.00;;;;;26.43;38.15;65185.50;5067789;27;45415;-72
2022/08/28 00:36:18;;;;;;;;;3.00;3.00;;;;;26.40;38.92;65098.72;4976636;28;45499;-72
2022/08/28 00:38:44;;;;;;;;;3.67;3.67;;;;;26.32;38.42;65038.31;4997059;27;45433;-72
2022/08/28 00:41:09;;;;;;;;;3.00;3.00;;;;;26.33;38.75;64890.97;5003746;27;45373;-72
2022/08/28 00:43:35;;;;;;;;;3.00;3.00;;;;;26.32;38.88;64883.91;5049067;27;45785;-72
2022/08/28 00:46:03;;;;;;;;;2.33;2.33;;;;;26.29;39.12;64753.81;5097490;27;45385;-71
2022/08/28 00:48:29;;;;;;;;;5.00;3.33;;;;;26.27;39.25;64724.50;5027144;27;45308;-72
2022/08/28 00:53:40;;;;;;;;;4.00;4.00;;;;;26.23;39.10;64535.91;4980482;27;45744;-72
2022/08/28 00:56:09;;;;;;;;;4.00;2.00;;;;;26.20;39.09;64542.84;5051636;27;45414;-72
2022/08/28 00:58:35;;;;;;;;;1.33;1.33;;;;;26.14;39.47;64449.56;5113435;27;45699;-71
2022/08/28 01:01:01;;;;;;;;;3.00;3.00;;;;;26.15;38.89;64401.91;5096562;27;47061;-72
2022/08/28 01:03:26;;;;;;;;;3.67;2.00;;;;;26.10;39.27;64218.25;5096793;27;45652;-72
2022/08/28 01:05:52;;;;;;;;;3.00;3.00;;;;;26.09;39.36;64127.81;5097218;27;45407;-72
2022/08/28 01:08:18;;;;;;;;;2.67;2.67;;;;;26.10;39.18;64121.34;5097316;27;45492;-72
2022/08/28 01:10:49;;;;;;;;;3.00;2.00;;;;;26.02;39.36;64034.03;5080961;27;45571;-72
2022/08/28 01:13:15;;;;;;;;;1.67;1.67;;;;;26.08;39.31;63931.81;4993407;28;45536;-72
2022/08/28 01:15:41;;;;;;;;;3.67;3.67;;;;;26.02;39.92;63795.84;4976029;28;45410;-72
2022/08/28 01:18:09;;;;;;;;;2.33;2.33;;;;;26.03;40.02;63696.25;4976040;28;45427;-72
2022/08/28 01:20:40;;;;;;;;;2.00;2.00;;;;;25.91;39.86;63624.09;4975640;28;46186;-72
2022/08/28 01:23:13;;;;;;;;;3.33;3.33;;;;;25.92;40.19;63538.63;4993586;28;45801;-72
2022/08/28 01:25:41;;;;;;;;;6.33;3.00;;;;;25.94;40.20;63381.13;4993473;28;45402;-72
2022/08/28 01:28:11;;;;;;;;;3.00;3.00;;;;;25.94;40.26;63305.38;5024387;27;45381;-72
2022/08/28 01:30:38;;;;;;;;;3.00;3.00;;;;;25.96;39.90;63271.84;5096590;27;45662;-72
2022/08/28 01:33:04;;;;;;;;;3.67;3.00;;;;;25.92;40.12;63205.81;5096382;27;45428;-72
2022/08/28 01:35:33;;;;;;;;;2.67;1.67;;;;;25.86;40.46;63109.97;5096783;27;45558;-72
2022/08/28 01:38:00;;;;;;;;;4.00;3.00;;;;;25.82;40.47;62976.31;5097228;27;45524;-72
2022/08/28 01:40:35;;;;;;;;;3.00;3.00;;;;;25.77;40.42;62905.97;5096382;27;46005;-72
2022/08/28 01:43:11;;;;;;;;;3.00;3.00;;;;;25.76;40.50;62691.22;5078018;27;45441;-72
2022/08/28 01:45:37;;;;;;;;;6.67;5.67;;;;;25.73;40.34;62533.25;5074224;27;45451;-72
2022/08/28 01:48:06;;;;;;;;;5.67;5.00;;;;;25.58;40.77;62464.09;5057803;28;45447;-72
2022/08/28 01:50:32;;;;;;;;;8.00;7.00;;;;;25.58;40.50;62404.63;4975287;28;47429;-72
2022/08/28 01:52:58;;;;;;;;;7.33;7.33;;;;;25.59;40.86;62259.69;4992743;28;45716;-72
2022/08/28 01:55:24;;;;;;;;;6.00;6.00;;;;;25.53;40.95;62168.91;4993045;28;45390;-72
2022/08/28 01:57:52;;;;;;;;;9.00;7.00;;;;;25.57;41.06;61952.06;4975653;28;45417;-72
2022/08/28 02:00:19;;;;;;;;;6.33;6.33;;;;;25.57;40.88;61868.25;4992632;28;46074;-72
2022/08/28 02:02:46;;;;;;;;;8.33;6.00;;;;;25.54;41.45;61796.94;4978293;28;45437;-72
2022/08/28 02:05:11;;;;;;;;;8.67;7.33;;;;;25.45;40.94;61658.13;4991884;28;45515;-72
2022/08/28 02:07:37;;;;;;;;;12.33;8.00;;;;;25.44;41.61;61465.72;4993026;28;45369;-72
2022/08/28 02:10:06;;;;;;;;;10.33;7.33;;;;;25.44;41.51;61290.06;4974935;28;46841;-72
2022/08/28 02:12:31;;;;;;;;;7.00;7.00;;;;;25.40;41.22;61266.94;4991040;27;45436;-72
2022/08/28 02:14:57;;;;;;;;;6.00;6.00;;;;;25.38;41.70;61126.47;4958734;28;45429;-72
2022/08/28 02:17:23;;;;;;;;;5.00;5.00;;;;;25.31;41.53;61002.91;4959134;28;45539;-72
2022/08/28 02:19:48;;;;;;;;;3.67;3.67;;;;;25.34;41.72;60808.88;5055127;27;45415;-72
2022/08/28 02:22:14;;;;;;;;;3.67;3.67;;;;;25.37;41.66;60733.66;5095848;27;45520;-72
2022/08/28 02:24:39;;;;;;;;;3.00;3.00;;;;;25.39;41.88;60682.25;5096060;27;45406;-72
2022/08/28 02:27:05;;;;;;;;;3.00;3.00;;;;;25.36;41.27;60635.38;5097188;27;45467;-72
2022/08/28 02:29:30;;;;;;;;;2.00;2.00;;;;;25.38;41.29;60478.59;5099206;27;45705;-72
2022/08/28 02:31:56;;;;;;;;;5.00;4.00;;;;;25.25;42.22;60217.03;5115409;27;45381;-73
2022/08/28 02:34:22;;;;;;;;;3.00;3.00;;;;;25.21;42.26;59964.44;5099573;27;45390;-72
2022/08/28 02:36:48;;;;;;;;;4.67;3.00;;;;;25.19;41.86;59913.22;5037266;27;45308;-72
2022/08/28 02:39:14;;;;;;;;;2.00;2.00;;;;;25.10;42.31;59726.22;4995438;28;45785;-72
2022/08/28 02:41:40;;;;;;;;;3.00;3.00;;;;;25.18;42.17;59515.78;4977789;28;45569;-72
2022/08/28 02:44:05;;;;;;;;;2.00;2.00;;;;;25.13;42.17;59305.44;4995393;28;45431;-72
2022/08/28 02:46:30;;;;;;;;;3.00;3.00;;;;;25.06;42.25;58883.09;4995942;28;45389;-73
2022/08/28 02:48:56;;;;;;;;;4.00;3.00;;;;;25.14;42.66;58882.63;4984990;28;48138;-72
2022/08/28 02:51:22;;;;;;;;;4.67;3.67;;;;;25.11;42.18;58879.59;4995377;28;45517;-72
2022/08/28 02:53:49;;;;;;;;;4.00;3.00;;;;;25.05;42.26;58644.06;4994362;27;45469;-72
2022/08/28 02:56:15;;;;;;;;;4.33;3.00;;;;;25.04;42.18;58580.97;4975931;28;45653;-72
2022/08/28 02:58:41;;;;;;;;;6.00;3.00;;;;;25.09;42.75;58466.78;4975279;28;45382;-72
2022/08/28 03:01:10;;;;;;;;;2.00;2.00;;;;;25.11;42.53;58571.88;4974251;28;45529;-72
2022/08/28 03:03:36;;;;;;;;;5.67;5.00;;;;;25.09;42.73;58412.81;4958410;28;45540;-72
2022/08/28 03:06:02;;;;;;;;;7.00;6.33;;;;;24.98;42.97;57959.66;4975645;28;45442;-72
2022/08/28 03:08:30;;;;;;;;;9.33;8.00;;;;;24.99;42.31;57939.59;4975447;28;45699;-72
2022/08/28 03:10:55;;;;;;;;;11.67;10.00;;;;;24.98;43.02;57633.72;4991875;27;45404;-72
2022/08/28 03:13:21;;;;;;;;;11.33;11.00;;;;;24.97;42.88;57286.91;4995884;28;45594;-73
2022/08/28 03:15:47;;;;;;;;;12.33;11.00;;;;;24.91;43.27;57071.06;4995429;28;45460;-72
2022/08/28 03:18:14;;;;;;;;;11.33;11.00;;;;;24.94;43.01;56846.97;4994796;28;46020;-73
2022/08/28 03:20:40;;;;;;;;;11.67;9.33;;;;;24.87;43.20;56576.28;4977370;28;45974;-72
2022/08/28 03:25:50;;;;;;;;;12.67;12.33;;;;;24.81;43.70;55796.56;5098687;27;45425;-72
2022/08/28 03:28:15;;;;;;;;;13.33;10.00;;;;;24.76;43.01;55656.97;5017843;27;46095;-72
2022/08/28 03:30:41;;;;;;;;;9.00;8.33;;;;;24.74;43.65;55358.53;4994831;28;45405;-72
2022/08/28 03:33:06;;;;;;;;;8.00;8.00;;;;;24.75;43.64;55300.19;4977133;28;45459;-72
2022/08/28 03:35:33;;;;;;;;;11.67;9.00;;;;;24.80;43.10;55154.06;4995376;28;45449;-72
2022/08/28 03:37:58;;;;;;;;;7.00;7.00;;;;;24.77;43.53;55105.34;4976745;28;45940;-72
2022/08/28 03:40:24;;;;;;;;;8.00;5.33;;;;;24.74;43.49;54941.25;4976447;28;45774;-73
2022/08/28 03:42:49;;;;;;;;;4.67;4.67;;;;;24.71;43.43;54571.44;4994613;28;45520;-73
2022/08/28 03:45:15;;;;;;;;;3.00;3.00;;;;;24.75;43.85;54688.88;4998413;27;45411;-72
2022/08/28 03:47:41;;;;;;;;;4.00;4.00;;;;;24.73;43.49;54452.53;4994426;28;47235;-72
2022/08/28 03:50:10;;;;;;;;;4.00;4.00;;;;;24.68;43.81;54196.75;4960939;28;45636;-72
2022/08/28 03:52:36;;;;;;;;;4.33;4.33;;;;;24.67;43.34;53983.44;4994565;28;45487;-72
2022/08/28 03:55:01;;;;;;;;;4.00;4.00;;;;;24.56;43.88;53601.91;5027783;28;45547;-72
2022/08/28 03:57:27;;;;;;;;;4.00;4.00;;;;;24.63;44.00;53454.88;5029197;28;46931;-72
2022/08/28 03:59:53;;;;;;;;;4.00;4.00;;;;;24.61;43.70;53038.25;5029805;28;45450;-72
2022/08/28 04:02:19;;;;;;;;;3.00;3.00;;;;;24.59;43.68;53070.94;4997085;28;45450;-72
2022/08/28 04:04:49;;;;;;;;;6.67;4.33;;;;;24.54;43.82;52403.94;4975322;28;45585;-72
2022/08/28 04:07:17;;;;;;;;;3.00;3.00;;;;;24.52;44.19;52108.66;4974738;28;45432;-72
2022/08/28 04:09:42;;;;;;;;;2.00;2.00;;;;;24.53;44.12;51754.63;4974664;28;45489;-72
2022/08/28 04:12:08;;;;;;;;;3.00;3.00;;;;;24.53;44.16;52026.09;4976691;28;45789;-72
2022/08/28 04:14:35;;;;;;;;;4.00;4.00;;;;;24.43;44.11;51920.56;4994869;28;45443;-72
2022/08/28 04:17:00;;;;;;;;;4.67;3.33;;;;;24.35;44.48;51593.06;4994166;28;45781;-72
2022/08/28 04:19:26;;;;;;;;;4.00;3.00;;;;;24.44;44.05;51512.81;4980167;28;45473;-72
2022/08/28 04:21:52;;;;;;;;;3.00;3.00;;;;;24.48;44.74;51052.59;4976716;28;45410;-72
2022/08/28 04:24:18;;;;;;;;;3.67;3.33;;;;;24.46;44.69;50910.84;5097593;27;45422;-72
2022/08/28 04:26:43;;;;;;;;;5.33;4.67;;;;;24.40;44.30;50457.06;5097542;27;46671;-72
2022/08/28 04:29:09;;;;;;;;;6.33;4.00;;;;;24.30;44.77;50195.38;5079143;27;45420;-72
2022/08/28 04:31:34;;;;;;;;;6.33;5.00;;;;;24.33;44.43;49727.28;5079442;27;45481;-72
2022/08/28 04:34:03;;;;;;;;;6.33;4.00;;;;;24.30;45.00;49240.13;5097712;27;45370;-72
2022/08/28 04:36:30;;;;;;;;;6.00;6.00;;;;;24.20;44.63;48675.84;5007461;27;45390;-72
2022/08/28 04:38:58;;;;;;;;;6.33;5.33;;;;;24.26;44.77;48484.25;4994152;28;45437;-72
2022/08/28 04:41:24;;;;;;;;;7.00;5.00;;;;;24.25;44.54;48270.59;4992602;28;45411;-72
2022/08/28 04:43:51;;;;;;;;;7.67;5.67;;;;;24.31;45.21;48071.31;4976844;28;45534;-72
2022/08/28 04:46:17;;;;;;;;;6.33;5.00;;;;;24.31;44.87;47998.72;4993556;28;47054;-72
2022/08/28 04:48:43;;;;;;;;;7.33;5.00;;;;;24.25;45.13;47609.69;4993809;28;45804;-72
2022/08/28 04:51:11;;;;;;;;;3.00;3.00;;;;;24.28;45.43;47399.44;4993578;28;45512;-72
2022/08/28 04:53:37;;;;;;;;;4.00;2.00;;;;;24.15;45.13;46803.25;4997405;27;45358;-72
2022/08/28 04:56:08;;;;;;;;;2.00;2.00;;;;;24.15;45.43;46384.50;4993453;28;45505;-72
2022/08/28 04:58:35;;;;;;;;;5.00;5.00;;;;;24.22;45.32;45930.34;4993857;28;45568;-72
2022/08/28 05:01:14;;;;;;;;;3.67;3.67;;;;;24.23;45.66;46186.81;4975910;28;45571;-72
2022/08/28 05:03:39;;;;;;;;;2.67;2.67;;;;;24.20;45.33;45845.84;4994012;28;45570;-71
2022/08/28 05:06:05;;;;;;;;;2.33;2.33;;;;;24.19;45.84;45116.66;4976366;28;45451;-72
2022/08/28 05:08:31;;;;;;;;;3.00;3.00;;;;;24.19;45.69;44883.38;4999805;27;45375;-72
2022/08/28 05:11:07;;;;;;;;;2.33;2.33;;;;;24.17;45.71;44244.94;5096976;27;45467;-72
2022/08/28 05:13:33;;;;;;;;;2.00;2.00;;;;;24.17;45.77;43963.38;5024152;27;45446;-72
2022/08/28 05:16:02;;;;;;;;;4.00;3.00;;;;;24.15;45.96;43446.31;4993461;28;46112;-72
2022/08/28 05:18:27;;;;;;;;;3.00;2.00;;;;;24.16;45.66;42649.41;4975993;28;45612;-72
2022/08/28 05:20:53;;;;;;;;;2.67;2.67;;;;;24.15;46.11;42503.72;4993373;28;45529;-72
2022/08/28 05:23:18;;;;;;;;;4.00;4.00;;;;;24.17;45.72;42344.19;5036768;27;45478;-72
2022/08/28 05:25:46;;;;;;;;;4.00;4.00;;;;;24.13;45.85;41291.94;5080717;27;46145;-72
2022/08/28 05:28:13;;;;;;;;;2.00;2.00;;;;;24.13;45.83;40836.19;4993485;28;45486;-72
2022/08/28 05:30:40;;;;;;;;;3.33;3.33;;;;;24.07;46.00;40598.47;4993412;28;45452;-73
2022/08/28 05:33:07;;;;;;;;;4.00;1.00;;;;;24.09;46.29;40151.59;4993618;28;45559;-72
2022/08/28 05:35:35;;;;;;;;;4.67;3.00;;;;;24.14;45.95;40238.66;4991765;27;48542;-72
2022/08/28 05:38:00;;;;;;;;;3.00;3.00;;;;;24.16;45.89;39491.72;4975369;28;46454;-72
2022/08/28 05:40:26;;;;;;;;;2.67;2.33;;;;;24.20;45.98;39386.88;4993417;28;45468;-72
2022/08/28 05:42:52;;;;;;;;;3.67;3.00;;;;;24.20;46.27;39051.97;4978404;28;45550;-72
2022/08/28 05:45:18;;;;;;;;;6.00;4.00;;;;;24.18;45.88;39074.72;4992835;28;45527;-72
2022/08/28 05:47:43;;;;;;;;;3.00;3.00;;;;;24.27;45.91;38957.22;4992651;28;45471;-72
2022/08/28 05:50:12;;;;;;;;;2.00;2.00;;;;;24.28;45.93;38839.56;4993030;28;45425;-72
2022/08/28 05:52:38;;;;;;;;;3.00;3.00;;;;;24.32;45.91;38464.13;4975761;28;45515;-72
2022/08/28 05:55:04;;;;;;;;;2.00;2.00;;;;;24.35;46.39;38233.19;4992843;28;45446;-72
2022/08/28 05:57:30;;;;;;;;;2.00;2.00;;;;;24.40;45.77;38166.84;4975007;28;45472;-72
2022/08/28 05:59:55;;;;;;;;;3.00;3.00;;;;;24.31;46.55;38176.84;4996486;27;45526;-73
2022/08/28 06:02:20;;;;;;;;;3.00;3.00;;;;;24.50;46.04;38473.44;4993095;28;45924;-73
2022/08/28 06:04:48;;;;;;;;;5.00;3.00;;;;;24.46;45.81;38709.44;4995885;28;45700;-72
2022/08/28 06:07:14;;;;;;;;;4.00;3.00;;;;;24.54;45.95;37719.66;4970432;28;45506;-72
2022/08/28 06:09:40;;;;;;;;;3.67;3.00;;;;;24.53;45.84;37695.16;4995896;28;45457;-72
2022/08/28 06:12:07;;;;;;;;;3.67;3.67;;;;;24.59;46.33;38181.75;4995803;28;45489;-72
2022/08/28 06:14:33;;;;;;;;;2.67;2.67;;;;;24.61;46.13;37547.63;4995681;28;46270;-72
2022/08/28 06:16:59;;;;;;;;;5.33;3.67;;;;;24.60;46.02;37369.88;4999088;27;45528;-73
2022/08/28 06:19:27;;;;;;;;;4.00;3.00;;;;;24.72;46.43;36419.81;4995932;28;45433;-72
2022/08/28 06:21:56;;;;;;;;;2.33;2.00;;;;;24.75;46.25;37841.06;4995834;28;45386;-73
2022/08/28 06:24:21;;;;;;;;;3.33;3.00;;;;;24.82;46.31;37086.03;4975806;28;46116;-74
2022/08/28 06:26:47;;;;;;;;;1.00;0.00;;;;;24.87;45.84;37838.06;4966835;28;45660;-75
2022/08/28 06:29:18;;;;;;;;;2.00;2.00;;;;;24.94;45.91;37718.97;4980480;27;45481;-74
2022/08/28 06:31:44;;;;;;;;;3.00;3.00;;;;;24.94;45.57;38618.28;5069478;27;45512;-74
2022/08/28 06:34:09;;;;;;;;;3.67;2.00;;;;;25.01;46.06;37409.59;5008455;27;47257;-74
2022/08/28 06:36:37;;;;;;;;;3.00;3.00;;;;;25.04;45.87;36864.34;5007028;28;45537;-74
2022/08/28 06:39:04;;;;;;;;;5.00;3.00;;;;;25.09;45.67;38295.25;5053057;27;45621;-74
2022/08/28 06:41:31;;;;;;;;;4.33;3.33;;;;;25.16;45.20;38176.81;5029220;27;45452;-75
2022/08/28 06:43:57;;;;;;;;;3.67;3.00;;;;;25.21;45.76;37940.88;5050581;28;47605;-76
2022/08/28 06:46:23;;;;;;;;;2.00;2.00;;;;;25.27;45.08;38235.31;5059147;27;45505;-77
2022/08/28 06:48:49;;;;;;;;;2.00;2.00;;;;;25.32;45.32;38738.03;5027846;27;45499;-74
2022/08/28 06:51:15;;;;;;;;;6.00;4.00;;;;;25.39;44.85;39033.03;5002249;28;45668;-74
2022/08/28 06:53:42;;;;;;;;;6.00;4.00;;;;;25.45;45.19;40015.47;5035088;27;45503;-73
2022/08/28 06:56:16;;;;;;;;;5.00;3.00;;;;;25.53;44.97;39993.53;5061970;27;45586;-74
2022/08/28 06:58:43;;;;;;;;;3.50;3.00;;;;;25.56;45.20;39412.69;5070202;27;45424;-74
2022/08/28 07:01:21;;;;;;;;;2.00;2.00;;;;;25.62;45.38;38543.31;5028941;27;45453;-74
2022/08/28 07:03:47;;;;;;;;;4.67;3.00;;;;;25.72;45.19;39520.31;5074304;27;45532;-75
2022/08/28 07:06:13;;;;;;;;;4.67;3.00;;;;;25.82;44.61;39946.84;5068579;27;47128;-74
2022/08/28 07:08:41;;;;;;;;;3.00;2.67;;;;;25.85;44.00;41398.56;5040077;27;46089;-74
2022/08/28 07:11:17;;;;;;;;;3.00;3.00;;;;;25.90;44.45;41415.66;5083943;27;45497;-75
2022/08/28 07:13:43;;;;;;;;;4.00;3.00;;;;;25.95;44.48;41830.69;5003499;28;47360;-74
2022/08/28 07:16:10;;;;;;;;;4.00;4.00;;;;;25.94;44.18;41186.81;5051126;27;45547;-75
2022/08/28 07:18:35;;;;;;;;;4.00;3.00;;;;;26.03;43.96;41909.63;5045672;27;45453;-74
2022/08/28 07:21:01;;;;;;;;;2.00;2.00;;;;;26.16;43.78;42018.13;5063163;27;45525;-74
2022/08/28 07:23:29;;;;;;;;;4.00;3.00;;;;;26.19;44.54;41686.50;5007428;27;47037;-74
2022/08/28 07:25:54;;;;;;;;;2.67;2.67;;;;;26.14;44.18;42264.72;5010890;27;45443;-74
2022/08/28 07:28:23;;;;;;;;;2.33;2.33;;;;;26.27;44.06;42397.88;5057021;27;45738;-75
2022/08/28 07:31:03;;;;;;;;;4.67;3.33;;;;;26.32;43.94;42582.09;5038683;27;45568;-74
2022/08/28 07:33:29;;;;;;;;;5.33;2.00;;;;;26.28;43.65;43096.59;5078713;27;46328;-74
2022/08/28 07:35:56;;;;;;;;;3.00;2.00;;;;;26.35;44.30;41924.47;5097987;27;45511;-74
2022/08/28 07:38:22;;;;;;;;;3.00;3.00;;;;;26.36;43.17;43735.38;5097045;27;45404;-74
2022/08/28 07:40:48;;;;;;;;;5.00;3.67;;;;;26.50;43.25;43538.66;5090208;27;45442;-74
2022/08/28 07:46:00;;;;;;;;;3.33;3.00;;;;;26.61;43.17;44271.41;4994704;28;45495;-74
2022/08/28 07:48:26;;;;;;;;;2.33;2.33;;;;;26.62;43.44;44334.19;4994444;28;45755;-74
2022/08/28 07:50:52;;;;;;;;;10.00;8.67;;;;;26.70;43.48;44580.78;4977067;28;45499;-75
2022/08/28 07:53:18;;;;;;;;;2.33;2.33;;;;;26.76;42.89;44628.22;4976771;28;47058;-74
2022/08/28 07:55:44;;;;;;;;;3.33;2.33;;;;;26.83;43.11;45188.91;4994691;28;45589;-77
2022/08/28 07:58:10;;;;;;;;;4.00;3.00;;;;;26.86;43.08;44759.75;5012902;27;45503;-75
2022/08/28 08:00:36;;;;;;;;;1.00;1.00;;;;;26.97;42.75;45647.88;4981166;28;45464;-73
2022/08/28 08:03:01;;;;;;;;;4.33;3.00;;;;;26.98;42.56;46031.47;5023156;27;45505;-72
2022/08/28 08:05:27;;;;;;;;;4.00;3.00;;;;;27.05;42.89;45737.97;5076571;27;45429;-72
2022/08/28 08:07:52;;;;;;;;;5.33;4.00;;;;;27.11;42.39;45990.66;5064676;27;45517;-72
2022/08/28 08:10:18;;;;;;;;;5.67;4.00;;;;;27.16;42.33;46197.56;5036172;27;45464;-72
2022/08/28 08:12:45;;;;;;;;;3.67;3.00;;;;;27.24;42.11;46630.22;5027556;27;47346;-72
2022/08/28 08:15:11;;;;;;;;;3.00;3.00;;;;;27.29;42.31;46542.06;5005373;27;45409;-72
2022/08/28 08:17:36;;;;;;;;;3.00;3.00;;;;;27.40;42.10;46307.59;4995294;28;46063;-71
2022/08/28 08:20:03;;;;;;;;;4.00;3.33;;;;;27.47;41.82;47269.47;5045937;27;45547;-72
2022/08/28 08:22:28;;;;;;;;;5.33;4.00;;;;;27.54;41.56;47056.41;5104781;27;46857;-72
2022/08/28 08:24:54;;;;;;;;;2.67;2.67;;;;;27.60;41.92;47401.38;5079525;27;45475;-72
2022/08/28 08:27:20;;;;;;;;;4.00;4.00;;;;;27.66;41.40;48022.94;5033304;28;45572;-71
2022/08/28 08:29:47;;;;;;;;;4.00;4.00;;;;;27.92;41.19;47598.22;4999892;28;45635;-71
2022/08/28 08:32:14;;;;;;;;;5.33;4.00;;;;;28.24;40.73;47753.41;4990365;27;45560;-71
2022/08/28 08:34:48;;;;;;;;;2.00;2.00;;;;;28.72;40.11;47741.63;4997985;27;45381;-72
2022/08/28 08:37:14;;;;;;;;;4.00;3.67;;;;;30.45;38.29;47122.19;4986439;28;45458;-74
2022/08/28 08:39:41;;;;;;;;;3.67;2.33;;;;;31.58;36.05;50637.75;5020665;27;45458;-71
2022/08/28 08:42:19;;;;;;;;;4.33;4.00;;;;;33.03;33.83;52167.19;5008245;27;47515;-77
2022/08/28 08:44:47;;;;;;;;;6.00;4.33;;;;;34.80;31.59;53759.91;5040158;28;45438;-77
2022/08/28 08:47:32;;;;;;;;;4.00;4.00;;;;;35.14;31.87;55163.31;4975377;28;45525;-79
2022/08/28 08:50:21;;;;;;;;;23.33;19.67;;;;;34.42;32.39;56268.19;5000361;27;45453;-85
2022/08/28 08:52:59;;;;;;;;;19.67;16.00;;;;;33.94;34.18;54160.34;4987544;28;45556;-81
2022/08/28 08:55:34;;;;;;;;;4.67;3.33;;;;;34.19;32.62;55964.56;4986363;28;45680;-78
2022/08/28 08:58:08;;;;;;;;;6.33;4.00;;;;;35.66;32.12;54011.03;4996664;28;45733;-78
2022/08/28 09:00:42;;;;;;;;;5.33;4.00;;;;;36.16;31.06;55315.56;5007514;28;45529;-78
2022/08/28 09:03:21;;;;;;;;;3.00;3.00;;;;;36.77;29.72;55718.31;5025934;27;45615;-78
2022/08/28 09:05:53;;;;;;;;;4.67;3.67;;;;;37.82;28.21;55323.63;4989833;28;45744;-79
2022/08/28 09:08:26;;;;;;;;;4.00;3.00;;;;;38.71;27.96;54858.66;5001353;28;45439;-79
2022/08/28 09:11:01;;;;;;;;;4.00;4.00;;;;;39.39;27.43;54742.13;5060912;27;45477;-80
2022/08/28 09:13:31;;;;;;;;;5.33;4.33;;;;;39.98;25.56;55256.72;4986562;28;47304;-77
2022/08/28 09:15:56;;;;;;;;;7.67;4.00;;;;;40.37;24.86;55566.19;5006207;28;45865;-78
2022/08/28 09:18:27;;;;;;;;;3.67;3.67;;;;;40.65;24.92;55150.28;4991942;28;45528;-78
2022/08/28 09:20:56;;;;;;;;;4.33;4.33;;;;;40.61;23.75;56268.94;4975476;28;45664;-79
2022/08/28 09:23:24;;;;;;;;;4.00;4.00;;;;;40.03;24.44;57081.59;5004296;28;47274;-78
2022/08/28 09:25:57;;;;;;;;;5.00;5.00;;;;;39.59;24.73;57949.97;4988699;28;45531;-78
2022/08/28 09:28:27;;;;;;;;;4.67;4.67;;;;;39.73;25.85;57124.03;5005231;28;45394;-78
2022/08/28 09:31:15;;;;;;;;;3.00;3.00;;;;;39.80;24.61;57863.09;5023838;27;45455;-72
2022/08/28 09:33:45;;;;;;;;;5.67;5.67;;;;;39.22;25.25;58937.97;5023204;27;48816;-72
2022/08/28 09:36:36;;;;;;;;;6.00;6.00;;;;;38.74;25.96;59216.00;5049756;27;45440;-72
2022/08/28 09:39:22;;;;;;;;;3.67;3.67;;;;;39.00;26.00;58905.28;5002520;28;45471;-72
2022/08/28 09:45:02;;;;;;;;;7.67;5.00;;;;;39.07;25.80;59099.44;4996887;28;45836;-72
2022/08/28 09:47:36;;;;;;;;;4.00;4.00;;;;;39.29;25.28;58630.41;4995366;28;45460;-71
2022/08/28 09:50:19;;;;;;;;;5.00;5.00;;;;;39.58;25.60;58396.72;5002418;28;45335;-72
2022/08/28 09:52:45;;;;;;;;;6.00;5.00;;;;;39.52;25.86;58379.69;5065286;27;45482;-72
2022/08/28 09:55:26;;;;;;;;;4.33;4.33;;;;;39.60;25.13;58528.50;5007814;27;46654;-72
2022/08/28 09:57:53;;;;;;;;;5.67;5.67;;;;;39.78;24.58;58383.06;4998929;28;45432;-72
2022/08/28 10:00:18;;;;;;;;;5.00;5.00;;;;;39.77;25.00;58638.91;5047587;27;45476;-73
2022/08/28 10:02:57;;;;;;;;;5.33;5.00;;;;;39.70;25.05;58788.81;5022508;28;45631;-78
2022/08/28 10:05:36;;;;;;;;;4.00;4.00;;;;;39.25;26.09;58836.63;4975655;28;47869;-72
2022/08/28 10:08:26;;;;;;;;;4.33;4.33;;;;;39.04;25.72;59304.38;4984766;27;45634;-72
2022/08/28 10:10:58;;;;;;;;;6.67;6.00;;;;;38.32;26.13;60698.84;4970893;28;45622;-72
2022/08/28 10:13:33;;;;;;;;;8.67;7.00;;;;;38.19;26.33;60686.41;4992778;28;45639;-72
2022/08/28 10:16:08;;;;;;;;;7.33;4.33;;;;;37.88;26.18;60987.59;4989095;28;46220;-72
2022/08/28 10:18:48;;;;;;;;;5.67;5.67;;;;;37.71;27.34;60904.31;4991756;28;45596;-71
2022/08/28 10:21:23;;;;;;;;;3.00;3.00;;;;;37.56;27.21;61302.31;5020869;27;45533;-72
2022/08/28 10:23:58;;;;;;;;;7.67;7.67;;;;;37.63;27.26;61210.50;4991437;28;45324;-72
2022/08/28 10:26:55;;;;;;;;;6.00;6.00;;;;;37.56;26.56;61324.38;5010212;28;46217;-72
2022/08/28 10:29:38;;;;;;;;;5.00;5.00;;;;;37.64;27.05;61197.25;4984854;28;45437;-72
2022/08/28 10:32:52;;;;;;;;;6.00;4.33;;;;;37.82;27.14;60811.06;5001677;27;45536;-72
2022/08/28 10:35:22;;;;;;;;;4.67;4.33;;;;;37.87;26.97;60868.09;4998238;28;45510;-73
2022/08/28 10:38:05;;;;;;;;;5.00;5.00;;;;;37.91;27.13;60861.22;5002195;28;45593;-73
2022/08/28 10:40:37;;;;;;;;;6.00;5.00;;;;;38.09;27.03;60667.75;4988000;28;45995;-73
2022/08/28 10:43:12;;;;;;;;;5.00;3.33;;;;;38.28;26.16;60482.91;5000227;27;45386;-73
2022/08/28 10:45:38;;;;;;;;;5.67;5.67;;;;;38.50;25.31;60452.78;5059862;27;45518;-73
2022/08/28 10:48:25;;;;;;;;;6.33;4.00;;;;;38.73;26.17;59935.38;5051205;27;45444;-73
2022/08/28 10:50:59;;;;;;;;;6.33;5.67;;;;;39.07;25.96;59671.16;5008437;28;45669;-73
2022/08/28 10:53:34;;;;;;;;;5.67;5.67;;;;;39.19;25.59;59718.75;4981011;28;45367;-73
2022/08/28 10:56:09;;;;;;;;;5.67;4.33;;;;;38.83;25.44;60171.84;4998245;28;45545;-73
2022/08/28 10:58:39;;;;;;;;;4.33;4.33;;;;;38.17;26.14;61141.91;4990643;28;45591;-73
2022/08/28 11:01:08;;;;;;;;;5.00;5.00;;;;;37.77;26.24;61442.28;5019719;27;45542;-73
2022/08/28 11:03:55;;;;;;;;;4.33;4.33;;;;;37.71;26.10;61518.63;4990059;28;45574;-73
2022/08/28 11:06:29;;;;;;;;;4.33;4.33;;;;;37.57;26.00;62053.13;4992398;28;45492;-73
2022/08/28 11:09:23;;;;;;;;;8.67;5.00;;;;;37.34;26.49;62130.63;4994706;28;45586;-73
2022/08/28 11:11:48;;;;;;;;;5.00;4.00;;;;;37.58;26.61;61759.44;5010311;27;45496;-73
2022/08/28 11:14:25;;;;;;;;;5.33;5.33;;;;;37.29;26.29;62222.22;5005486;28;45470;-73
2022/08/28 11:16:55;;;;;;;;;6.33;4.67;;;;;36.78;26.36;62897.75;5083705;27;45468;-73
2022/08/28 11:19:58;;;;;;;;;8.33;6.00;;;;;36.03;27.62;63404.81;5031034;27;45619;-73
2022/08/28 11:22:39;;;;;;;;;4.67;3.67;;;;;36.26;27.88;63000.75;4997569;27;45589;-73
2022/08/28 11:25:15;;;;;;;;;6.00;5.33;;;;;36.73;27.17;62502.19;4990306;28;45378;-72
2022/08/28 11:28:21;;;;;;;;;4.00;3.33;;;;;37.28;26.86;61859.94;5001995;28;45532;-72
2022/08/28 11:31:06;;;;;;;;;4.67;4.67;;;;;37.02;27.35;62417.03;5030077;27;47235;-78
2022/08/28 11:33:41;;;;;;;;;5.33;5.33;;;;;36.47;27.15;63275.91;4985450;27;45481;-75
2022/08/28 11:36:09;;;;;;;;;5.00;4.33;;;;;35.85;26.48;64004.31;4977121;28;45540;-76
2022/08/28 11:38:40;;;;;;;;;5.00;4.67;;;;;35.42;27.80;64096.25;5074362;27;45565;-80
2022/08/28 11:41:32;;;;;;;;;6.00;6.00;;;;;35.36;28.12;64106.19;5024990;27;45465;-78
2022/08/28 11:44:13;;;;;;;;;7.00;5.00;;;;;35.83;27.63;63562.34;4997428;28;45558;-78
2022/08/28 11:46:39;;;;;;;;;3.00;3.00;;;;;35.98;28.17;63256.47;5029484;27;45492;-80
2022/08/28 11:49:25;;;;;;;;;8.33;6.33;;;;;35.79;27.90;63638.25;4990208;28;45572;-79
2022/08/28 11:52:23;;;;;;;;;5.67;5.00;;;;;35.33;28.29;63855.69;4990051;28;45712;-76
2022/08/28 11:55:23;;;;;;;;;5.67;5.67;;;;;35.02;28.48;64372.00;4977572;28;46111;-84